KETB

West Bend Municipal Airport

West Bend, Wisconsin, USA
METAR KETB 110155Z AUTO 24010KT 10SM CLR M01/M05 A3002 RMK AO2
Observed Flight Rules
Dec-11 @ 01:55 UTC (31 minutes ago) Visual Flight Rules
Wind Visibility Clouds
240° at 10 knots 10 miles
  • Clear skies
Temperatures Readings
Current -1°C / 30°F
Dewpoint -5°C / 23°F
Humidity 75%
Altimeter 30.02" Hg
Pressure 1017 hPa
Elevation 270
METAR KETB 110155Z AUTO 24010KT 10SM CLR M01/M05 A3002 RMK AO2
Observed Flight Rules
Dec-11 @ 01:55 UTC
(31 minutes ago)
VFR
Wind Visibility
240° at 10 knots 10 miles
Clouds
  • Clear skies
Temperature Dewpoint
-1°C / 30°F -5°C / 23°F
Humidity Altimeter Pressure
75% 30.02" Hg 1017 hPa